Time;durP1;ratioP1;P1;durP2;ratioP2;P2;SDS_P1;SDS_P2;PMS_P1;PMS_P2;Temp;Humidity;BMP_temperature;BMP_pressure;BME280_temperature;BME280_humidity;BME280_pressure;Samples;Min_cycle;Max_cycle;Signal;HPM_P1;HPM_P2
2022/05/25 00:00:13;;;;;;;3.70;1.13;;;14.30;99.90;;;14.37;93.70;100653.66;5209130;28;20494;-74
2022/05/25 00:02:46;;;;;;;1.50;1.00;;;14.20;99.90;;;14.33;93.71;100657.09;5209058;28;20050;-75
2022/05/25 00:05:18;;;;;;;1.13;1.02;;;14.20;99.90;;;14.29;93.79;100667.50;5209111;28;20050;-74
2022/05/25 00:07:50;;;;;;;1.52;1.20;;;14.10;99.90;;;14.25;94.26;100665.69;5208992;28;20049;-74
2022/05/25 00:10:24;;;;;;;2.15;1.30;;;14.10;99.90;;;14.25;94.01;100669.19;5208986;28;20417;-74
2022/05/25 00:12:56;;;;;;;1.67;1.00;;;14.00;99.90;;;14.23;94.41;100675.28;5209049;28;20046;-73
2022/05/25 00:15:29;;;;;;;1.70;1.15;;;14.00;99.90;;;14.21;94.31;100667.34;5209093;28;20465;-74
2022/05/25 00:18:01;;;;;;;2.08;1.25;;;14.00;99.90;;;14.17;94.28;100665.53;5208798;28;20050;-73
2022/05/25 00:20:32;;;;;;;1.42;0.95;;;14.00;99.90;;;14.15;94.63;100675.13;5208843;28;20045;-74
2022/05/25 00:23:04;;;;;;;1.45;1.20;;;14.00;99.90;;;14.14;94.66;100673.34;5208826;28;20501;-74
2022/05/25 00:25:40;;;;;;;2.25;1.10;;;14.00;99.90;;;14.11;94.80;100678.53;5208902;28;20049;-74
2022/05/25 00:28:14;;;;;;;2.40;1.38;;;13.90;99.90;;;14.08;94.49;100675.84;5208387;28;20057;-74
2022/05/25 00:30:47;;;;;;;1.88;1.00;;;13.90;99.90;;;14.06;94.90;100677.56;5208594;28;20049;-74
2022/05/25 00:33:21;;;;;;;1.23;1.13;;;13.90;99.90;;;14.05;94.70;100681.03;5208745;28;20591;-74
2022/05/25 00:35:53;;;;;;;1.70;1.08;;;13.90;99.90;;;14.04;94.73;100695.00;5208889;28;20565;-74
2022/05/25 00:38:25;;;;;;;2.00;1.17;;;13.80;99.90;;;14.02;94.78;100691.50;5208196;28;20052;-74
2022/05/25 00:40:59;;;;;;;2.28;1.20;;;13.80;99.90;;;14.02;95.10;100694.09;5208300;28;20415;-74
2022/05/25 00:43:31;;;;;;;3.10;1.20;;;13.80;99.90;;;14.01;95.32;100690.56;5208513;28;20045;-74
2022/05/25 00:46:08;;;;;;;3.03;1.55;;;13.80;99.90;;;14.01;95.20;100692.31;5208586;28;20060;-74
2022/05/25 00:48:45;;;;;;;0.95;0.85;;;13.80;99.90;;;14.02;95.45;100697.59;5208247;28;20050;-74
2022/05/25 00:51:25;;;;;;;1.20;1.10;;;13.80;99.90;;;14.04;95.19;100702.88;5208658;28;20471;-73
2022/05/25 00:54:00;;;;;;;1.40;1.30;;;13.90;99.90;;;14.05;95.08;100707.25;5208570;28;20054;-74
2022/05/25 00:56:35;;;;;;;3.85;1.55;;;13.90;99.90;;;14.06;95.37;100704.66;5208279;28;20049;-74
2022/05/25 00:59:10;;;;;;;;;;;13.90;99.90;;;14.07;95.67;100710.78;5208411;28;20049;-74
2022/05/25 01:01:43;;;;;;;1.58;1.10;;;13.90;99.90;;;14.08;95.41;100708.22;5207654;28;20385;-73
2022/05/25 01:04:15;;;;;;;1.42;1.02;;;13.90;99.90;;;14.10;95.12;100705.63;5208092;28;20401;-74
2022/05/25 01:07:09;;;;;;;2.38;1.30;;;13.90;99.90;;;14.12;95.12;100714.38;5208215;28;20064;-74
2022/05/25 01:09:58;;;;;;;1.13;1.02;;;14.00;99.90;;;14.14;95.25;100717.91;5207609;28;20129;-73
2022/05/25 01:12:52;;;;;;;2.75;1.50;;;14.00;99.90;;;14.16;94.98;100715.34;5207819;28;20490;-75
2022/05/25 01:15:36;;;;;;;1.15;1.05;;;14.00;99.90;;;14.17;95.12;100711.84;5207798;28;20406;-74
2022/05/25 01:18:23;;;;;;;1.23;1.13;;;14.00;99.90;;;14.19;95.10;100721.50;5207751;28;20497;-73
2022/05/25 01:20:59;;;;;;;1.60;1.42;;;14.00;99.90;;;14.19;94.74;100721.50;5207492;28;20050;-74
2022/05/25 01:24:10;;;;;;;2.38;1.42;;;14.00;99.90;;;14.19;94.90;100725.88;5207940;28;20056;-74
2022/05/25 01:27:22;;;;;;;1.85;1.45;;;14.00;99.90;;;14.17;94.61;100728.47;5207949;28;20049;-73
2022/05/25 01:30:07;;;;;;;2.85;1.50;;;14.00;99.90;;;14.13;94.33;100730.13;5207278;28;20056;-74
2022/05/25 01:32:53;;;;;;;2.45;1.70;;;14.00;99.90;;;14.11;93.96;100728.34;5207469;28;20050;-74
2022/05/25 01:35:36;;;;;;;4.35;1.65;;;14.00;99.90;;;14.11;93.51;100733.59;5207477;28;20133;-73
2022/05/25 01:38:17;;;;;;;2.92;1.75;;;14.00;99.90;;;14.08;93.60;100728.25;5207377;28;20046;-74
2022/05/25 01:40:59;;;;;;;5.47;2.13;;;13.90;99.90;;;14.07;93.33;100731.75;5207235;28;20049;-74
2022/05/25 01:43:40;;;;;;;5.57;1.95;;;13.90;99.90;;;14.07;93.01;100726.50;5207045;28;20056;-74
2022/05/25 01:46:20;;;;;;;4.75;2.28;;;13.90;99.90;;;14.04;93.11;100726.47;5206924;28;20057;-74
2022/05/25 01:48:55;;;;;;;4.00;1.92;;;13.90;99.90;;;14.03;93.37;100738.69;5206840;28;20058;-73
2022/05/25 01:51:34;;;;;;;3.72;1.50;;;13.90;99.90;;;14.00;93.29;100735.09;5207111;28;20056;-74
2022/05/25 01:54:09;;;;;;;6.03;1.80;;;13.90;99.90;;;13.95;93.26;100739.34;5206936;28;20060;-74
2022/05/25 01:56:45;;;;;;;;;;;13.80;99.90;;;13.93;93.79;100743.69;5207479;28;20053;-74
2022/05/25 01:59:20;;;;;;;4.38;2.00;;;13.80;99.90;;;13.92;93.70;100737.56;5206652;28;19920;-74
2022/05/25 02:04:45;;;;;;;4.82;1.65;;;13.80;99.90;;;13.90;94.17;100733.16;5206748;28;20498;-74
2022/05/25 02:07:33;;;;;;;3.55;1.65;;;13.70;99.90;;;13.88;94.30;100734.84;5206852;28;20053;-74
2022/05/25 02:10:46;;;;;;;2.70;1.55;;;13.70;99.90;;;13.86;94.82;100729.59;5206654;28;20053;-73
2022/05/25 02:13:56;;;;;;;1.85;1.38;;;13.70;99.90;;;13.87;94.66;100738.34;5206762;28;20053;-77
2022/05/25 02:16:43;;;;;;;1.50;1.23;;;13.70;99.90;;;13.83;94.74;100735.66;5206678;28;20056;-73
2022/05/25 02:19:23;;;;;;;1.75;1.08;;;13.70;99.90;;;13.83;94.56;100738.28;5206880;28;20592;-73
2022/05/25 02:22:00;;;;;;;2.28;1.20;;;13.70;99.90;;;13.81;94.63;100732.09;5206765;28;20072;-73
2022/05/25 02:24:40;;;;;;;1.77;1.38;;;13.70;99.90;;;13.79;94.41;100731.19;5206426;28;20054;-73
2022/05/25 02:27:19;;;;;;;1.45;1.13;;;13.60;99.90;;;13.78;94.38;100739.91;5206813;28;20049;-74
2022/05/25 02:29:58;;;;;;;1.23;1.00;;;13.60;99.90;;;13.78;94.57;100739.91;5206175;28;20053;-73
2022/05/25 02:32:38;;;;;;;1.90;1.35;;;13.60;99.90;;;13.78;94.55;100736.41;5206371;28;20077;-73
2022/05/25 02:35:13;;;;;;;2.30;1.23;;;13.60;99.90;;;13.75;94.27;100747.69;5206489;28;20053;-74
2022/05/25 02:37:45;;;;;;;1.50;1.10;;;13.60;99.90;;;13.73;94.25;100757.25;5206132;28;20053;-73
2022/05/25 02:40:18;;;;;;;2.10;1.33;;;13.60;99.90;;;13.71;94.29;100764.22;5206241;28;20136;-74
2022/05/25 02:42:50;;;;;;;1.52;1.02;;;13.60;99.90;;;13.70;94.03;100756.34;5206242;28;20049;-73
2022/05/25 02:45:22;;;;;;;2.03;1.15;;;13.50;99.90;;;13.67;94.39;100766.72;5206306;28;20513;-73
2022/05/25 02:47:54;;;;;;;3.00;1.20;;;13.50;99.90;;;13.64;94.55;100761.44;5205893;28;20508;-74
2022/05/25 02:50:28;;;;;;;2.55;1.20;;;13.50;99.90;;;13.61;94.19;100762.22;5206029;28;20418;-73
2022/05/25 02:53:00;;;;;;;2.40;1.30;;;13.40;99.90;;;13.59;94.11;100761.31;5206325;28;20120;-74
2022/05/25 02:55:32;;;;;;;1.63;1.23;;;13.40;99.90;;;13.55;94.07;100768.22;5206167;28;20049;-73
2022/05/25 02:58:04;;;;;;;1.90;1.30;;;13.40;99.90;;;13.52;94.21;100767.28;5204943;28;20053;-74
2022/05/25 03:00:36;;;;;;;1.80;1.13;;;13.40;99.90;;;13.47;93.79;100772.41;5205656;28;20065;-73
2022/05/25 03:03:08;;;;;;;1.58;1.25;;;13.30;99.90;;;13.43;93.98;100772.28;5206021;28;20482;-73
2022/05/25 03:05:42;;;;;;;1.67;0.95;;;13.30;99.90;;;13.39;93.95;100780.94;5205994;28;20064;-73
2022/05/25 03:08:15;;;;;;;2.70;1.42;;;13.20;99.90;;;13.33;93.88;100783.41;5205665;28;20110;-74
2022/05/25 03:10:47;;;;;;;1.02;0.98;;;13.20;99.90;;;13.28;93.83;100778.94;5205955;28;20482;-73
2022/05/25 03:13:19;;;;;;;2.17;1.20;;;13.20;99.90;;;13.22;93.69;100784.03;5206154;28;20045;-74
2022/05/25 03:15:51;;;;;;;2.40;1.40;;;13.10;99.90;;;13.17;93.84;100785.66;5205959;28;20046;-74
2022/05/25 03:18:23;;;;;;;3.95;1.50;;;13.00;99.90;;;13.12;94.13;100795.13;5205439;28;20253;-73
2022/05/25 03:20:57;;;;;;;1.52;1.25;;;13.00;99.90;;;13.08;94.13;100789.75;5205717;28;20049;-73
2022/05/25 03:23:29;;;;;;;1.70;1.20;;;12.90;99.90;;;13.01;94.11;100788.72;5205383;28;20055;-73
2022/05/25 03:26:01;;;;;;;1.63;1.20;;;12.90;99.90;;;12.98;94.41;100789.56;5205934;28;20046;-75
2022/05/25 03:28:33;;;;;;;1.77;1.20;;;12.80;99.90;;;12.96;94.70;100796.44;5205266;28;20064;-73
2022/05/25 03:31:06;;;;;;;1.83;1.05;;;12.90;99.90;;;12.92;94.38;100799.84;5205684;28;20049;-73
2022/05/25 03:33:38;;;;;;;2.47;1.60;;;12.80;99.90;;;12.88;94.62;100800.63;5205703;28;20410;-74
2022/05/25 03:36:12;;;;;;;1.73;1.60;;;12.80;99.90;;;12.85;94.48;100807.53;5205853;28;20414;-74
2022/05/25 03:38:44;;;;;;;1.65;1.27;;;12.70;99.90;;;12.84;95.16;100805.72;5205426;28;20136;-74
2022/05/25 03:41:17;;;;;;;3.15;1.45;;;12.70;99.90;;;12.86;95.48;100807.56;5205627;28;20049;-74
2022/05/25 03:43:49;;;;;;;1.52;1.10;;;12.70;99.90;;;12.89;95.99;100810.22;5205535;28;20050;-73
2022/05/25 03:46:21;;;;;;;2.67;1.58;;;12.80;99.90;;;12.91;95.86;100813.78;5205280;28;20055;-74
2022/05/25 03:48:53;;;;;;;2.70;1.38;;;12.80;99.90;;;12.91;95.80;100815.50;5205344;28;20045;-73
2022/05/25 03:51:27;;;;;;;1.52;1.27;;;12.80;99.90;;;12.89;95.66;100825.94;5205621;28;20410;-74
2022/05/25 03:53:59;;;;;;;2.28;1.52;;;12.80;99.90;;;12.87;95.49;100822.41;5205408;28;20046;-74
2022/05/25 03:56:31;;;;;;;2.38;1.50;;;12.80;99.90;;;12.86;95.58;100827.59;5205260;28;20061;-73
2022/05/25 03:59:03;;;;;;;1.90;1.23;;;12.70;99.90;;;12.83;95.60;100835.34;5205171;28;20060;-74
2022/05/25 04:01:37;;;;;;;2.03;1.20;;;12.70;99.90;;;12.79;95.28;100831.78;5205393;28;20057;-74
2022/05/25 04:04:09;;;;;;;2.40;1.13;;;12.70;99.90;;;12.80;95.59;100825.69;5205362;28;20045;-73
2022/05/25 04:06:43;;;;;;;1.75;1.30;;;12.70;99.90;;;12.81;95.29;100831.81;5205428;28;20490;-74
2022/05/25 04:09:15;;;;;;;1.42;1.20;;;12.70;99.90;;;12.79;95.05;100833.50;5206701;28;20049;-73
2022/05/25 04:11:47;;;;;;;2.75;1.52;;;12.70;99.90;;;12.79;95.39;100833.50;5209265;28;20536;-74
2022/05/25 04:14:19;;;;;;;1.48;1.30;;;12.70;99.90;;;12.79;95.26;100843.97;5209208;28;20058;-74
2022/05/25 04:16:51;;;;;;;2.40;1.38;;;12.70;99.90;;;12.79;95.38;100847.47;5208897;28;20050;-74
2022/05/25 04:19:23;;;;;;;1.73;1.15;;;12.60;99.90;;;12.77;95.28;100844.78;5208706;28;20055;-74
2022/05/25 04:21:57;;;;;;;1.40;1.13;;;12.70;99.90;;;12.75;94.97;100846.50;5208913;28;20053;-75
2022/05/25 04:24:29;;;;;;;1.98;1.45;;;12.60;99.90;;;12.72;95.07;100849.03;5208923;28;20167;-74
2022/05/25 04:27:01;;;;;;;4.00;1.40;;;12.60;99.90;;;12.71;95.39;100842.03;5208962;28;20050;-73
2022/05/25 04:29:36;;;;;;;2.22;1.30;;;12.60;99.90;;;12.73;95.63;100848.19;5221863;22;20436;-71
2022/05/25 04:32:09;;;;;;;1.95;1.05;;;12.60;99.90;;;12.75;95.50;100849.09;5210752;28;20065;-70
2022/05/25 04:34:41;;;;;;;2.13;1.30;;;12.60;99.90;;;12.79;95.68;100849.22;5229890;28;20041;-71
2022/05/25 04:40:06;;;;;;;4.28;1.80;;;12.70;99.90;;;12.83;95.82;100853.66;5229522;28;20049;-71
2022/05/25 04:42:38;;;;;;;1.40;1.30;;;12.70;99.90;;;12.87;95.87;100852.91;5229664;28;20049;-71
2022/05/25 04:45:11;;;;;;;2.38;1.55;;;12.80;99.90;;;12.95;96.09;100861.84;5229536;28;20049;-70
2022/05/25 04:47:43;;;;;;;1.55;1.35;;;12.80;99.90;;;13.09;96.62;100863.06;5229524;28;20045;-71
2022/05/25 04:50:19;;;;;;;3.70;1.60;;;12.90;99.90;;;13.39;97.55;100865.63;5229308;28;20056;-70
2022/05/25 04:52:53;;;;;;;2.65;1.75;;;13.10;99.90;;;13.78;96.45;100872.66;5229135;28;20045;-73
2022/05/25 04:58:23;;;;;;;2.17;1.70;;;13.90;99.90;;;14.79;90.56;100865.16;5229287;28;20053;-70
2022/05/25 05:00:56;;;;;;;2.03;1.60;;;14.40;99.90;;;15.19;83.82;100873.75;5229368;28;20136;-71
2022/05/25 05:03:29;;;;;;;2.20;1.67;;;14.80;99.90;;;15.58;80.69;100883.16;5229309;28;20053;-73
2022/05/25 05:06:02;;;;;;;1.73;1.30;;;15.10;99.90;;;15.98;78.07;100887.31;5228805;28;20048;-71
2022/05/25 05:08:36;;;;;;;2.10;1.88;;;15.50;99.90;;;16.39;75.68;100887.88;5228656;28;20049;-71
2022/05/25 05:11:10;;;;;;;3.25;1.70;;;15.90;99.90;;;16.68;72.89;100895.22;5228756;28;20049;-69
2022/05/25 05:13:43;;;;;;;1.83;1.40;;;16.20;99.90;;;16.91;70.75;100891.13;5228619;28;20489;-68
2022/05/25 05:16:18;;;;;;;2.88;1.42;;;16.40;99.90;;;17.15;69.33;100893.16;5228292;28;20063;-69
2022/05/25 05:18:50;;;;;;;2.47;1.60;;;16.70;99.90;;;17.47;69.04;100903.06;5228046;28;20056;-70
2022/05/25 05:21:22;;;;;;;2.28;1.52;;;16.90;99.90;;;17.75;67.87;100906.84;5227183;28;20471;-69
2022/05/25 05:23:56;;;;;;;2.15;1.48;;;17.20;99.90;;;17.98;67.06;100914.91;5228559;28;20055;-70
2022/05/25 05:26:28;;;;;;;3.78;1.55;;;17.40;99.90;;;18.18;65.50;100914.13;5214486;28;20128;-69
2022/05/25 05:29:00;;;;;;;2.13;1.50;;;17.60;99.90;;;18.22;63.79;100919.47;5207425;28;20140;-69
2022/05/25 05:31:32;;;;;;;2.55;1.50;;;17.60;99.50;;;18.30;62.66;100917.72;5207522;28;20050;-69
2022/05/25 05:34:04;;;;;;;2.60;1.58;;;17.80;98.70;;;18.52;63.15;100919.63;5207673;28;20133;-70
2022/05/25 05:36:41;;;;;;;3.75;2.03;;;17.90;99.00;;;18.78;62.06;100916.19;5207522;28;20055;-69
2022/05/25 05:39:17;;;;;;;3.10;1.50;;;18.20;98.40;;;19.04;62.01;100919.81;5199535;28;20045;-70
2022/05/25 05:41:54;;;;;;;2.30;1.35;;;18.40;98.50;;;19.20;61.72;100921.59;5207440;28;20049;-70
2022/05/25 05:44:31;;;;;;;3.00;1.50;;;18.60;98.10;;;19.47;61.01;100925.13;5202667;28;20049;-70
2022/05/25 05:47:08;;;;;;;2.70;1.55;;;18.80;97.70;;;19.68;58.76;100921.66;5207375;28;20060;-69
2022/05/25 05:49:42;;;;;;;2.92;2.28;;;19.00;96.40;;;19.77;58.13;100921.66;5207269;28;20508;-70
2022/05/25 05:52:15;;;;;;;2.53;1.67;;;19.10;95.70;;;19.96;58.54;100922.53;5207035;28;20045;-70
2022/05/25 05:54:48;;;;;;;3.05;1.55;;;19.30;95.90;;;20.11;58.08;100911.00;5207442;28;20124;-70
2022/05/25 05:57:20;;;;;;;2.80;1.48;;;19.40;95.60;;;20.22;56.75;100919.81;5207205;28;20051;-72
2022/05/25 05:59:52;;;;;;;3.63;1.60;;;19.60;94.60;;;20.35;57.03;100928.59;5206975;28;20486;-70
2022/05/25 06:02:24;;;;;;;3.05;1.58;;;19.70;94.60;;;20.50;56.38;100929.44;5207802;28;20046;-70
2022/05/25 06:04:56;;;;;;;2.47;1.30;;;19.80;94.20;;;20.69;56.48;100932.91;5206915;28;20050;-70
2022/05/25 06:07:28;;;;;;;4.80;1.60;;;20.00;94.10;;;20.88;56.27;100935.47;5207362;28;20067;-70
2022/05/25 06:10:02;;;;;;;1.92;1.23;;;20.20;94.00;;;20.97;55.14;100938.06;5206999;28;20049;-70
2022/05/25 06:12:34;;;;;;;3.63;1.20;;;20.30;93.10;;;20.89;54.16;100945.19;5206833;28;20056;-70
2022/05/25 06:20:49;;;;;;;3.80;1.60;;;20.30;92.00;;;21.22;53.39;100947.63;5207035;28;20172;-54
2022/05/25 06:23:21;;;;;;;3.47;1.20;;;20.50;91.30;;;21.35;52.88;100948.47;5206681;28;20489;-54
2022/05/25 06:25:54;;;;;;;5.15;1.30;;;20.60;90.90;;;21.50;52.57;100948.34;5206454;28;20045;-54
2022/05/25 06:28:26;;;;;;;2.60;1.17;;;20.70;90.50;;;21.61;52.51;100945.63;5206429;28;20099;-54
2022/05/25 06:30:58;;;;;;;1.48;0.90;;;20.90;90.40;;;21.71;52.51;100949.94;5206463;28;20053;-54
2022/05/25 06:33:30;;;;;;;4.95;1.20;;;21.00;90.20;;;21.66;52.01;100951.78;5206472;28;20079;-54
2022/05/25 06:36:17;;;;;;;1.75;0.82;;;21.00;89.00;;;21.73;51.92;100953.47;5206439;28;20045;-52
2022/05/25 06:38:49;;;;;;;2.92;0.88;;;21.10;89.00;;;21.88;50.71;100961.28;5206273;28;20522;-55
2022/05/25 06:41:23;;;;;;;2.03;0.80;;;21.20;87.10;;;21.95;50.31;100963.00;5206268;28;20072;-53
2022/05/25 06:43:56;;;;;;;1.73;0.75;;;21.30;85.70;;;22.05;50.80;100968.22;5206306;28;20057;-54
2022/05/25 06:46:28;;;;;;;1.00;0.70;;;21.40;86.40;;;21.97;49.62;100965.63;5198972;28;20407;-53
2022/05/25 06:49:00;;;;;;;1.95;0.80;;;21.40;84.10;;;22.00;49.22;100964.72;5197311;28;20052;-54
2022/05/25 06:51:35;;;;;;;1.00;0.63;;;21.40;83.80;;;22.23;49.43;100975.16;5194603;28;20056;-52
2022/05/25 06:54:08;;;;;;;2.47;0.95;;;21.50;83.80;;;22.41;49.13;100969.63;5193668;28;20502;-53
2022/05/25 06:56:42;;;;;;;1.98;0.98;;;21.70;83.10;;;22.52;48.55;100974.84;5197568;28;20053;-53
2022/05/25 06:59:14;;;;;;;0.82;0.60;;;21.80;81.70;;;22.46;48.11;100981.97;5202849;28;20045;-54
2022/05/25 07:01:46;;;;;;;1.15;0.60;;;21.80;81.00;;;22.39;48.14;100985.59;5198049;28;20049;-53
2022/05/25 07:04:18;;;;;;;1.65;0.60;;;21.70;80.30;;;22.53;46.34;100979.25;5193560;28;20049;-53
2022/05/25 07:06:50;;;;;;;1.25;0.50;;;21.90;78.00;;;22.73;46.68;100990.53;5195408;28;20056;-53
2022/05/25 07:09:22;;;;;;;0.70;0.70;;;22.00;78.20;;;22.96;45.74;100985.84;5199730;28;20045;-53
2022/05/25 07:11:55;;;;;;;1.35;0.57;;;22.20;77.00;;;23.10;44.37;100984.78;5206245;28;20045;-54
2022/05/25 07:14:28;;;;;;;0.90;0.47;;;22.30;75.30;;;23.24;44.42;100982.81;5203790;28;20045;-54
2022/05/25 07:17:00;;;;;;;0.50;0.50;;;22.40;74.70;;;23.41;44.30;100991.44;5205781;28;20417;-53
2022/05/25 07:19:33;;;;;;;1.23;0.50;;;22.60;74.40;;;23.50;42.64;100983.28;5205616;28;20046;-53
2022/05/25 07:22:09;;;;;;;1.33;0.40;;;22.70;71.80;;;23.55;42.20;100978.78;5205590;28;20418;-71
2022/05/25 07:24:41;;;;;;;0.93;0.40;;;22.80;70.80;;;23.67;42.46;100982.16;5205857;28;20049;-71
2022/05/25 07:27:14;;;;;;;0.70;0.35;;;22.80;70.30;;;23.79;42.53;100984.63;5205703;28;20060;-71
2022/05/25 07:29:46;;;;;;;3.50;0.70;;;22.90;70.80;;;23.90;42.55;100985.34;5205426;28;20060;-71
2022/05/25 07:32:22;;;;;;;1.02;0.40;;;23.00;71.00;;;24.00;42.14;100981.63;5206254;28;20058;-71
2022/05/25 07:35:00;;;;;;;1.38;0.50;;;23.20;70.10;;;24.07;41.14;100983.28;5205726;28;20056;-71
2022/05/25 07:37:38;;;;;;;0.68;0.68;;;23.20;68.70;;;24.00;41.00;100980.75;5205673;28;20421;-69
2022/05/25 07:40:15;;;;;;;0.80;0.45;;;23.20;67.90;;;23.97;40.20;100984.31;5205332;28;20483;-70
2022/05/25 07:42:51;;;;;;;1.13;0.43;;;23.10;67.00;;;24.01;40.01;100993.16;5205600;28;20144;-70
2022/05/25 07:45:24;;;;;;;0.63;0.28;;;23.20;66.30;;;24.03;39.50;100986.88;5209460;28;20068;-70
2022/05/25 07:47:56;;;;;;;0.85;0.40;;;23.20;65.80;;;24.19;39.37;100989.25;5209805;28;20045;-70
2022/05/25 07:50:29;;;;;;;0.60;0.60;;;23.20;65.50;;;24.35;39.46;100983.66;5209309;28;20045;-70
2022/05/25 07:53:02;;;;;;;0.32;0.30;;;23.40;66.00;;;24.52;39.27;100980.69;5209336;28;20045;-70
2022/05/25 07:55:34;;;;;;;0.50;0.30;;;23.50;65.30;;;24.71;38.30;100981.16;5209547;28;20046;-70
2022/05/25 07:58:08;;;;;;;0.60;0.32;;;23.60;64.00;;;24.94;38.39;100991.34;5209340;28;20049;-71
2022/05/25 08:00:40;;;;;;;0.88;0.30;;;23.70;64.40;;;25.13;37.02;100992.75;5209195;28;20139;-70
2022/05/25 08:06:01;;;;;;;1.85;0.50;;;24.00;63.80;;;25.89;37.09;100997.25;5209190;28;20045;-70
2022/05/25 08:08:33;;;;;;;0.30;0.30;;;24.20;64.10;;;26.38;36.62;100995.94;5205673;28;20053;-71
2022/05/25 08:11:10;;;;;;;0.40;0.30;;;24.50;63.60;;;26.87;34.51;100989.25;5209064;28;20049;-71
2022/05/25 08:13:46;;;;;;;1.05;0.40;;;24.80;61.40;;;27.46;33.91;100991.91;5209365;28;20049;-71
2022/05/25 08:16:19;;;;;;;0.50;0.20;;;25.10;60.60;;;28.12;33.01;100993.28;5209140;28;20053;-70
2022/05/25 08:18:51;;;;;;;0.50;0.32;;;25.40;60.10;;;28.82;32.56;100992.53;5208061;28;20049;-71
2022/05/25 08:21:23;;;;;;;2.22;0.40;;;25.80;60.30;;;29.39;30.95;100994.81;5194180;28;20050;-72
2022/05/25 08:23:55;;;;;;;0.70;0.22;;;26.00;58.10;;;30.06;29.91;101001.03;5205102;28;20061;-71
2022/05/25 08:26:27;;;;;;;1.10;0.40;;;26.30;57.40;;;30.69;28.33;101001.91;5207484;28;20063;-72
2022/05/25 08:29:00;;;;;;;1.17;0.30;;;26.60;56.20;;;31.11;28.05;100999.03;5206332;28;20055;-71
2022/05/25 08:31:32;;;;;;;0.85;0.20;;;26.80;56.10;;;32.00;27.18;100995.56;5208937;28;20049;-72
2022/05/25 08:34:05;;;;;;;0.20;0.10;;;27.20;55.70;;;33.13;25.32;100994.09;5208780;28;20046;-71
2022/05/25 08:36:37;;;;;;;0.38;0.25;;;28.10;54.10;;;33.75;23.75;100997.72;5208441;28;20049;-71
2022/05/25 08:39:09;;;;;;;0.20;0.17;;;28.80;51.50;;;34.02;22.95;100984.41;5206638;28;20045;-73
2022/05/25 08:41:42;;;;;;;0.40;0.20;;;29.20;50.20;;;34.29;23.54;100993.56;5208509;28;20050;-70
2022/05/25 08:44:16;;;;;;;1.02;0.20;;;29.60;51.10;;;34.91;22.70;100990.63;5208552;28;20050;-71
2022/05/25 08:46:47;;;;;;;;;;;30.30;49.20;;;35.17;22.09;100986.28;5204488;28;20524;-73
2022/05/25 08:49:19;;;;;;;1.05;0.20;;;30.60;48.40;;;35.56;22.21;100984.66;5207895;28;19921;-71
2022/05/25 08:51:55;;;;;;;0.50;0.22;;;30.90;48.30;;;35.92;21.59;100985.88;5207957;28;20060;-72
2022/05/25 08:54:29;;;;;;;0.32;0.20;;;31.30;47.80;;;36.24;20.21;100994.50;5207855;28;20049;-70
2022/05/25 08:57:06;;;;;;;0.57;0.20;;;31.60;45.60;;;36.29;19.62;100992.34;5206811;28;20055;-71
2022/05/25 08:59:48;;;;;;;0.20;0.13;;;31.80;44.50;;;36.34;20.52;100980.19;5207189;28;20512;-72
2022/05/25 09:02:29;;;;;;;0.30;0.15;;;31.80;45.60;;;36.58;20.40;100987.59;5208021;28;20475;-70
2022/05/25 09:05:10;;;;;;;0.17;0.10;;;32.00;45.70;;;36.78;20.37;100984.34;5204936;28;20052;-71
2022/05/25 09:07:53;;;;;;;0.10;0.10;;;32.20;45.80;;;37.00;19.87;100985.53;5202911;28;20137;-71
2022/05/25 09:10:26;;;;;;;0.13;0.13;;;32.40;45.70;;;37.07;20.19;100989.50;5202206;28;20057;-71
2022/05/25 09:13:05;;;;;;;0.30;0.10;;;32.50;45.30;;;36.83;19.66;100987.56;5207795;28;20589;-71
2022/05/25 09:16:15;;;;;;;0.85;0.30;;;32.50;44.40;;;36.49;19.91;100985.53;5207599;28;20045;-73
2022/05/25 09:18:38;;;;;;;0.28;0.20;;;32.30;44.50;;;35.84;20.67;100987.22;5206867;28;20045;-70
2022/05/25 09:21:10;;;;;;;0.10;0.10;;;32.00;44.20;;;34.85;21.16;100995.56;5207813;28;20121;-72
2022/05/25 09:23:43;;;;;;;0.10;0.10;;;31.50;44.00;;;34.02;22.21;100989.81;5205784;28;20479;-71
2022/05/25 09:26:15;;;;;;;0.95;0.20;;;31.10;45.10;;;33.34;22.96;100986.59;5205201;28;20042;-70
2022/05/25 09:28:50;;;;;;;0.55;0.20;;;30.70;45.70;;;32.65;23.39;100985.84;5206914;28;20075;-71
2022/05/25 09:31:34;;;;;;;0.65;0.30;;;30.40;45.50;;;31.51;24.26;100987.25;5204299;28;20148;-70
2022/05/25 09:34:12;;;;;;;1.45;0.28;;;29.80;45.70;;;30.33;25.77;100991.81;5203241;28;20045;-70
2022/05/25 09:36:50;;;;;;;1.23;0.20;;;29.00;46.20;;;29.25;27.19;100989.13;5206859;28;20050;-69
2022/05/25 09:39:26;;;;;;;0.30;0.10;;;28.20;47.50;;;28.39;28.71;100983.44;5207055;28;20056;-70
2022/05/25 09:42:02;;;;;;;0.22;0.20;;;27.50;49.00;;;28.03;29.50;100982.88;5207776;28;20049;-70
2022/05/25 09:44:35;;;;;;;0.25;0.10;;;27.00;49.70;;;27.85;29.96;100982.59;5206884;28;20045;-71
2022/05/25 09:47:17;;;;;;;0.32;0.17;;;26.80;50.20;;;27.58;30.27;100973.66;5207020;28;20135;-71
2022/05/25 09:49:52;;;;;;;0.88;0.17;;;26.60;50.80;;;27.12;30.57;100976.88;5205143;28;20049;-70
2022/05/25 09:52:36;;;;;;;0.73;0.10;;;26.20;50.60;;;26.97;30.74;100971.97;5204133;28;20045;-71
2022/05/25 09:55:15;;;;;;;0.38;0.20;;;26.00;50.80;;;26.64;30.23;100980.06;5207152;28;20053;-69
2022/05/25 09:57:57;;;;;;;0.55;0.25;;;25.70;50.20;;;26.50;30.74;100979.59;5207280;28;20049;-70
2022/05/25 10:00:44;;;;;;;0.10;0.10;;;25.60;50.50;;;26.38;31.69;100985.25;5206839;28;20057;-71
2022/05/25 10:03:36;;;;;;;0.30;0.13;;;25.50;51.50;;;25.99;32.06;100980.03;5206963;28;20045;-70
2022/05/25 10:06:24;;;;;;;0.30;0.10;;;25.20;52.40;;;25.69;33.28;100977.22;5206371;28;20046;-69
2022/05/25 10:09:13;;;;;;;0.63;0.20;;;24.90;52.90;;;25.80;33.10;100984.09;5202814;28;20045;-70
2022/05/25 10:11:49;;;;;;;0.57;0.10;;;25.00;53.20;;;25.97;32.89;100984.56;5200944;28;20049;-69
2022/05/25 10:14:29;;;;;;;0.90;0.30;;;25.00;52.90;;;26.17;32.95;100982.25;5203172;28;20053;-71
2022/05/25 10:17:08;;;;;;;0.30;0.30;;;25.10;53.20;;;26.33;32.92;100982.69;5210172;28;20053;-70
2022/05/25 10:19:49;;;;;;;0.57;0.17;;;25.30;53.30;;;26.41;32.37;100979.88;5206400;28;20053;-69
2022/05/25 10:22:32;;;;;;;0.15;0.10;;;25.40;52.70;;;26.36;31.82;100982.63;5206296;28;20091;-71
2022/05/25 10:25:10;;;;;;;0.25;0.20;;;25.40;51.80;;;26.33;32.60;100980.00;5206125;28;20080;-71
2022/05/25 10:27:45;;;;;;;0.50;0.30;;;25.40;52.90;;;26.25;32.88;100976.69;5206012;28;20059;-70
2022/05/25 10:39:21;;;;;;;0.22;0.22;;;25.30;53.60;;;26.27;33.48;100987.31;5204331;28;20520;-58
2022/05/25 10:42:08;;;;;;;1.60;0.30;;;25.30;53.40;;;26.22;34.48;100969.63;5185253;28;20491;-62
2022/05/25 10:44:53;;;;;;;2.08;0.43;;;25.30;54.90;;;26.12;34.47;100973.47;5185539;28;20061;-62
2022/05/25 10:47:47;;;;;;;0.20;0.20;;;25.20;54.70;;;25.80;34.53;100965.41;5185415;28;20052;-62
2022/05/25 10:50:25;;;;;;;0.45;0.30;;;25.00;54.60;;;25.57;34.85;100958.81;5185110;28;20054;-61
2022/05/25 10:53:05;;;;;;;0.77;0.30;;;24.80;55.20;;;25.67;35.00;100960.34;5183310;28;20053;-62
2022/05/25 10:55:47;;;;;;;0.80;0.17;;;24.80;55.20;;;25.81;31.89;100959.16;5185937;28;20069;-61
2022/05/25 10:58:41;;;;;;;0.25;0.25;;;24.90;52.30;;;25.95;32.27;100954.31;5184919;28;20414;-63
2022/05/25 11:01:34;;;;;;;0.93;0.30;;;25.00;52.30;;;26.27;33.37;100949.91;5185099;28;20050;-62
2022/05/25 11:04:35;;;;;;;6.43;2.08;;;25.20;53.50;;;26.45;33.60;100949.44;5185364;28;20061;-63
2022/05/25 11:07:24;;;;;;;14.65;4.75;;;25.40;54.30;;;26.53;34.05;100955.44;5185206;28;20096;-63
2022/05/25 11:10:38;;;;;;;14.32;4.38;;;25.50;54.50;;;26.59;33.60;100949.91;5185112;28;20057;-61
2022/05/25 11:13:51;;;;;;;22.35;7.68;;;25.60;54.30;;;26.55;34.53;100952.75;5185286;28;20111;-61
2022/05/25 11:16:36;;;;;;;37.47;17.83;;;25.60;55.10;;;26.53;33.64;100958.09;5165874;28;20047;-61